Terminal Aerodrome Forecast
Issued by NWS

Home | Current Version | Previous Version | Text Only | Print | Product List | Glossary On
Versions: 1 2 3 4 5 6 7 8 9 10 11 12
000
FTUS41 KBTV 200500
TAFSLK
TAF
KSLK 200527Z 2006/2106 VRB03KT P6SM FEW250 WS020/21035KT
     FM201000 22006KT P6SM BKN040 WS020/22035KT
     FM201300 21010KT P6SM BKN040
     FM201600 21015G25KT P6SM BKN040
     FM210100 22008KT P6SM OVC050=

USA.gov is the U.S. government's official web portal to all federal, state and local government web resources and services.